Time;durP1;ratioP1;P1;durP2;ratioP2;P2;SDS_P1;SDS_P2;PMS_P1;PMS_P2;Temp;Humidity;BMP_temperature;BMP_pressure;BME280_temperature;BME280_humidity;BME280_pressure;Samples;Min_cycle;Max_cycle;Signal;HPM_P1;HPM_P2
2022/05/14 00:01:10;;;;;;;11.10;3.67;;;;;;;15.55;47.24;101984.56;4927533;28;122951;-76
2022/05/14 00:03:40;;;;;;;10.52;3.35;;;;;;;15.54;47.10;101970.38;4913387;28;123989;-76
2022/05/14 00:06:11;;;;;;;11.23;3.20;;;;;;;15.53;47.22;101976.63;4913306;28;114475;-76
2022/05/14 00:08:39;;;;;;;7.88;3.40;;;;;;;15.53;47.12;101975.78;4927468;28;113145;-76
2022/05/14 00:13:53;;;;;;;9.02;3.40;;;;;;;15.51;47.19;101977.66;4909873;28;124321;-76
2022/05/14 00:16:23;;;;;;;9.55;4.35;;;;;;;15.49;47.35;101976.88;4911839;28;114094;-76
2022/05/14 00:18:52;;;;;;;8.93;3.50;;;;;;;15.48;47.28;101972.44;4911613;28;112994;-76
2022/05/14 00:21:20;;;;;;;7.68;3.40;;;;;;;15.48;47.41;101977.78;4912033;28;123994;-77
2022/05/14 00:23:47;;;;;;;6.68;3.17;;;;;;;15.48;47.19;101972.44;4912528;28;123885;-77
2022/05/14 00:26:15;;;;;;;9.52;3.00;;;;;;;15.46;47.31;101977.00;4895276;28;115092;-77
2022/05/14 00:28:42;;;;;;;9.07;3.10;;;;;;;15.46;47.25;101971.66;4913510;28;113968;-78
2022/05/14 00:31:09;;;;;;;8.80;3.20;;;;;;;15.43;47.42;101975.34;4924523;28;124869;-77
2022/05/14 00:33:37;;;;;;;6.45;3.15;;;;;;;15.41;47.34;101966.56;4895121;28;122153;-76
2022/05/14 00:36:05;;;;;;;6.97;3.30;;;;;;;15.41;47.31;101966.56;4895065;28;115068;-76
2022/05/14 00:38:32;;;;;;;10.90;3.30;;;;;;;15.40;47.54;101969.28;4912600;28;115238;-77
2022/05/14 00:41:03;;;;;;;8.95;3.42;;;;;;;15.38;47.58;101972.88;4911284;28;124742;-77
2022/05/14 00:43:32;;;;;;;5.93;3.38;;;;;;;15.37;47.58;101971.16;4910333;28;123961;-76
2022/05/14 00:46:17;;;;;;;9.52;3.55;;;;;;;15.35;47.66;101973.03;4894558;28;114398;-77
2022/05/14 00:48:46;;;;;;;8.93;3.45;;;;;;;15.35;47.56;101978.38;4911952;28;113514;-76
2022/05/14 00:51:17;;;;;;;8.43;3.38;;;;;;;15.32;47.71;101967.84;4926221;28;123396;-76
2022/05/14 00:53:49;;;;;;;9.25;3.28;;;;;;;15.32;47.71;101964.31;4926449;28;122831;-76
2022/05/14 00:56:19;;;;;;;10.57;3.58;;;;;;;15.29;47.87;101962.63;4908943;28;114085;-76
2022/05/14 00:58:54;;;;;;;8.45;3.67;;;;;;;15.28;47.87;101966.25;4896103;28;113331;-76
2022/05/14 01:01:21;;;;;;;8.40;3.33;;;;;;;15.27;47.74;101961.84;4909078;28;123215;-76
2022/05/14 01:03:49;;;;;;;8.43;3.35;;;;;;;15.25;47.79;101955.72;4893465;28;122916;-76
2022/05/14 01:06:19;;;;;;;8.35;3.10;;;;;;;15.24;47.96;101967.34;4895580;28;113872;-76
2022/05/14 01:08:48;;;;;;;10.10;3.50;;;;;;;15.24;47.90;101959.34;4926198;28;114577;-76
2022/05/14 01:11:19;;;;;;;14.77;3.40;;;;;;;15.22;47.92;101961.22;4893916;28;123219;-76
2022/05/14 01:13:47;;;;;;;9.50;3.53;;;;;;;15.22;48.08;101963.88;4926440;28;123498;-76
2022/05/14 01:16:14;;;;;;;6.45;2.90;;;;;;;15.21;47.83;101956.81;4912782;28;114311;-76
2022/05/14 01:18:42;;;;;;;7.78;3.20;;;;;;;15.19;47.80;101961.34;4910862;28;112155;-77
2022/05/14 01:21:15;;;;;;;8.10;3.22;;;;;;;15.16;47.97;101961.47;4925917;28;123509;-76
2022/05/14 01:26:36;;;;;;;7.38;3.10;;;;;;;15.13;47.71;101956.31;4910377;28;115003;-76
2022/05/14 01:29:15;;;;;;;10.02;3.10;;;;;;;15.10;47.88;101961.78;4911434;28;114179;-76
2022/05/14 01:31:43;;;;;;;7.97;3.30;;;;;;;15.09;47.73;101960.06;4909958;28;123985;-76
2022/05/14 01:34:14;;;;;;;7.95;2.78;;;;;;;15.08;47.88;101960.97;4910769;28;123162;-76
2022/05/14 01:36:42;;;;;;;7.35;3.30;;;;;;;15.09;47.93;101965.38;4894899;28;113524;-76
2022/05/14 01:39:10;;;;;;;7.25;3.10;;;;;;;15.08;47.82;101956.50;4907321;28;114509;-75
2022/05/14 01:41:37;;;;;;;8.77;3.28;;;;;;;15.07;47.91;101967.22;4925174;28;124115;-75
2022/05/14 01:44:05;;;;;;;7.57;2.92;;;;;;;15.05;47.91;101958.44;4925975;28;122965;-76
2022/05/14 01:46:33;;;;;;;6.65;2.97;;;;;;;15.05;47.77;101966.44;4894363;28;113575;-76
2022/05/14 01:49:00;;;;;;;6.95;2.90;;;;;;;15.03;47.87;101960.31;4926482;28;112456;-76
2022/05/14 01:51:29;;;;;;;8.73;2.83;;;;;;;15.01;47.78;101972.84;4925184;28;123328;-75
2022/05/14 01:53:56;;;;;;;7.25;3.20;;;;;;;14.97;47.89;101962.34;4910942;28;123974;-76
2022/05/14 01:56:24;;;;;;;7.88;2.95;;;;;;;14.96;47.74;101960.59;4894406;28;113821;-75
2022/05/14 01:58:52;;;;;;;6.95;2.90;;;;;;;14.95;47.96;101969.53;4893841;28;113757;-76
2022/05/14 02:01:27;;;;;;;8.15;2.95;;;;;;;14.93;47.76;101965.22;4909529;28;98579;-75
2022/05/14 02:04:00;;;;;;;6.55;3.08;;;;;;;14.90;47.83;101971.56;4911443;28;123626;-76
2022/05/14 02:06:30;;;;;;;8.07;2.80;;;;;;;14.87;47.87;101966.34;4897746;28;113433;-76
2022/05/14 02:08:59;;;;;;;6.78;2.67;;;;;;;14.84;47.90;101966.47;4898061;28;113046;-76
2022/05/14 02:11:27;;;;;;;4.95;2.50;;;;;;;14.82;47.86;101968.34;4929493;28;123298;-76
2022/05/14 02:14:03;;;;;;;7.05;2.80;;;;;;;14.80;47.95;101964.88;4910672;28;123610;-76
2022/05/14 02:16:30;;;;;;;6.35;2.90;;;;;;;14.78;47.89;101977.44;4910038;28;114453;-76
2022/05/14 02:18:58;;;;;;;6.03;2.80;;;;;;;14.76;47.82;101979.31;4924886;28;114788;-76
2022/05/14 02:21:26;;;;;;;5.30;2.92;;;;;;;14.75;48.02;101977.59;4893126;28;123725;-76
2022/05/14 02:23:54;;;;;;;11.38;2.80;;;;;;;14.77;48.00;101986.38;4925460;28;122946;-75
2022/05/14 02:26:22;;;;;;;6.50;2.92;;;;;;;14.76;48.12;101984.63;4909639;28;113812;-76
2022/05/14 02:28:50;;;;;;;7.45;2.88;;;;;;;14.76;47.95;101984.63;4910113;28;113312;-75
2022/05/14 02:31:17;;;;;;;6.60;3.13;;;;;;;14.76;47.94;101979.31;4924471;28;123770;-75
2022/05/14 02:33:45;;;;;;;8.23;3.05;;;;;;;14.76;48.09;101973.97;4894185;28;123631;-76
2022/05/14 02:36:12;;;;;;;6.53;2.85;;;;;;;14.77;48.13;101981.03;4890148;28;113433;-75
2022/05/14 02:38:40;;;;;;;5.30;2.92;;;;;;;14.77;48.04;101986.38;4910142;28;113809;-75
2022/05/14 02:41:09;;;;;;;5.03;2.60;;;;;;;14.77;48.09;101986.38;4924169;28;124360;-75
2022/05/14 02:43:36;;;;;;;10.02;3.20;;;;;;;14.76;47.89;101985.50;4893319;28;123454;-75
2022/05/14 02:46:05;;;;;;;7.47;2.97;;;;;;;14.74;47.98;101991.84;4909743;28;114703;-75
2022/05/14 02:48:33;;;;;;;7.32;3.22;;;;;;;14.72;48.01;101988.38;4908921;28;112762;-75
2022/05/14 02:51:01;;;;;;;6.15;2.75;;;;;;;14.71;47.92;101983.97;4892992;28;123427;-75
2022/05/14 02:53:28;;;;;;;6.57;3.03;;;;;;;14.70;48.07;101990.25;4910382;28;123565;-75
2022/05/14 02:55:56;;;;;;;8.10;3.15;;;;;;;14.68;48.01;101986.78;4925667;28;113449;-75
2022/05/14 03:01:09;;;;;;;7.57;2.80;;;;;;;14.64;47.75;101995.84;4892877;28;123816;-75
2022/05/14 03:03:38;;;;;;;7.85;3.47;;;;;;;14.62;48.04;101997.69;4924690;28;123339;-75
2022/05/14 03:06:05;;;;;;;8.63;3.05;;;;;;;14.57;48.06;101993.44;4925151;28;114419;-75
2022/05/14 03:08:32;;;;;;;6.88;3.10;;;;;;;14.55;48.03;101995.28;4911121;28;114944;-75
2022/05/14 03:10:59;;;;;;;9.75;3.13;;;;;;;14.51;48.20;101985.69;4910388;28;124050;-76
2022/05/14 03:13:27;;;;;;;6.82;2.97;;;;;;;14.50;48.15;101983.06;4924986;28;123022;-75
2022/05/14 03:15:54;;;;;;;6.68;3.15;;;;;;;14.47;48.16;101989.41;4893349;28;114022;-75
2022/05/14 03:18:21;;;;;;;8.68;3.35;;;;;;;14.42;48.19;101980.75;4925133;28;113305;-75
2022/05/14 03:20:48;;;;;;;9.38;3.05;;;;;;;14.40;48.26;101977.28;4892265;28;123715;-75
2022/05/14 03:23:15;;;;;;;5.25;3.15;;;;;;;14.36;48.27;101975.69;4893100;28;123358;-74
2022/05/14 03:25:43;;;;;;;7.18;2.90;;;;;;;14.33;48.29;101981.13;4893539;28;114111;-76
2022/05/14 03:28:10;;;;;;;7.28;3.05;;;;;;;14.30;48.33;101981.28;4893722;28;112418;-75
2022/05/14 03:30:38;;;;;;;5.70;2.97;;;;;;;14.27;48.28;101981.41;4909360;28;125282;-75
2022/05/14 03:33:05;;;;;;;8.80;3.30;;;;;;;14.24;48.28;101981.50;4928350;28;122928;-76
2022/05/14 03:35:33;;;;;;;6.15;2.88;;;;;;;14.18;48.56;101988.88;4928599;28;113846;-76
2022/05/14 03:38:00;;;;;;;4.55;2.83;;;;;;;14.13;48.60;101988.19;4912394;28;114674;-76
2022/05/14 03:40:27;;;;;;;7.55;3.20;;;;;;;14.10;48.53;101977.63;4911791;28;124875;-76
2022/05/14 03:42:54;;;;;;;6.07;2.92;;;;;;;14.08;48.67;101976.84;4894858;28;123386;-75
2022/05/14 03:45:22;;;;;;;9.10;2.88;;;;;;;14.05;48.59;101976.94;4927066;28;113475;-75
2022/05/14 03:47:49;;;;;;;9.68;3.33;;;;;;;14.03;48.87;101973.47;4910420;28;114281;-75
2022/05/14 03:50:17;;;;;;;9.02;3.90;;;;;;;14.00;48.92;101984.28;4927160;28;123158;-75
2022/05/14 03:52:44;;;;;;;11.98;3.20;;;;;;;13.99;48.96;101977.22;4911490;28;122300;-75
2022/05/14 03:55:11;;;;;;;9.43;3.15;;;;;;;13.97;49.05;101979.06;4926575;28;114381;-75
2022/05/14 03:57:39;;;;;;;5.78;3.00;;;;;;;13.97;48.95;101984.41;4911196;28;114572;-76
2022/05/14 04:00:07;;;;;;;5.72;3.20;;;;;;;13.96;49.00;101982.69;4912632;28;123826;-75
2022/05/14 04:02:43;;;;;;;8.70;3.70;;;;;;;13.95;48.96;101986.25;4927719;28;123788;-76
2022/05/14 04:05:11;;;;;;;9.65;3.28;;;;;;;13.95;49.22;101988.94;4897985;28;113804;-75
2022/05/14 04:07:43;;;;;;;7.30;3.08;;;;;;;13.96;49.05;101988.00;4899227;28;113388;-75
2022/05/14 04:10:12;;;;;;;10.95;3.53;;;;;;;13.97;49.02;101984.41;4930720;28;123081;-75
2022/05/14 04:12:40;;;;;;;11.90;3.22;;;;;;;13.97;49.29;101985.25;4896826;28;123997;-75
2022/05/14 04:15:08;;;;;;;8.20;3.22;;;;;;;13.98;48.98;101986.16;4897030;28;114738;-75
2022/05/14 04:17:36;;;;;;;7.13;3.25;;;;;;;13.98;49.25;101980.81;4895396;28;113452;-75
2022/05/14 04:20:05;;;;;;;7.40;3.40;;;;;;;13.98;49.12;101983.50;4889738;28;123803;-75
2022/05/14 04:22:33;;;;;;;7.53;3.20;;;;;;;13.99;49.24;101987.88;4892453;28;123122;-75
2022/05/14 04:25:00;;;;;;;6.80;2.83;;;;;;;14.01;49.04;101994.00;4893901;28;114106;-75
2022/05/14 04:27:28;;;;;;;7.32;3.50;;;;;;;14.00;49.25;101989.63;4907733;28;113371;-75
2022/05/14 04:29:55;;;;;;;7.03;3.50;;;;;;;13.99;49.23;101990.53;4891046;28;123736;-75
2022/05/14 04:32:22;;;;;;;5.95;3.45;;;;;;;13.99;49.21;101988.75;4891673;28;123014;-75
2022/05/14 04:34:49;;;;;;;7.97;3.20;;;;;;;13.99;49.30;101994.09;4908398;28;113364;-75
2022/05/14 04:37:17;;;;;;;8.45;3.40;;;;;;;13.97;49.37;101990.59;4906929;28;114126;-75
2022/05/14 04:39:44;;;;;;;5.70;3.70;;;;;;;13.97;49.17;102011.03;4891143;28;123310;-75
2022/05/14 04:42:13;;;;;;;8.15;3.65;;;;;;;13.98;49.24;102002.13;4891543;28;123713;-75
2022/05/14 04:44:40;;;;;;;6.82;3.38;;;;;;;14.00;49.51;102008.25;4891903;28;115667;-76
2022/05/14 04:47:10;;;;;;;8.57;3.40;;;;;;;14.02;49.52;102009.06;4891956;28;114101;-76
2022/05/14 04:49:43;;;;;;;6.18;3.35;;;;;;;14.05;49.62;102006.25;4892079;28;124714;-76
2022/05/14 04:52:10;;;;;;;9.55;4.20;;;;;;;14.07;49.51;102012.41;4894015;28;122070;-76
2022/05/14 04:54:37;;;;;;;7.00;3.55;;;;;;;14.08;49.38;102011.47;4893606;28;113376;-75
2022/05/14 04:57:05;;;;;;;9.45;3.38;;;;;;;14.08;49.48;102014.13;4893298;28;112208;-76
2022/05/14 04:59:36;;;;;;;11.57;4.28;;;;;;;14.09;49.58;102013.22;4892004;28;123665;-76
2022/05/14 05:04:52;;;;;;;7.60;3.40;;;;;;;14.09;49.52;102015.88;4908267;28;114395;-76
2022/05/14 05:07:20;;;;;;;9.65;3.53;;;;;;;14.12;49.65;102021.06;4892704;28;112876;-76
2022/05/14 05:09:47;;;;;;;7.90;3.90;;;;;;;14.13;49.54;102022.81;4906944;28;123691;-76
2022/05/14 05:12:14;;;;;;;11.65;3.53;;;;;;;14.14;49.68;102023.66;4893442;28;124769;-75
2022/05/14 05:14:42;;;;;;;10.15;3.50;;;;;;;14.16;49.92;102017.34;4891787;28;113182;-75
2022/05/14 05:17:09;;;;;;;8.10;3.50;;;;;;;14.18;49.77;102028.81;4893573;28;113658;-75
2022/05/14 05:19:36;;;;;;;6.32;3.47;;;;;;;14.19;49.66;102027.88;4892822;28;124336;-75
2022/05/14 05:22:03;;;;;;;7.90;3.75;;;;;;;14.21;49.92;102028.69;4906612;28;124501;-75
2022/05/14 05:24:31;;;;;;;9.77;4.00;;;;;;;14.24;50.00;102029.47;4891777;28;114262;-75
2022/05/14 05:26:58;;;;;;;8.70;4.00;;;;;;;14.26;49.93;102038.28;4907886;28;114278;-76
2022/05/14 05:29:25;;;;;;;8.73;3.92;;;;;;;14.28;50.08;102044.41;4890898;28;123584;-75
2022/05/14 05:31:52;;;;;;;7.70;4.10;;;;;;;14.32;50.00;102044.22;4906715;28;124035;-75
2022/05/14 05:34:20;;;;;;;9.25;3.72;;;;;;;14.38;50.26;102035.13;4907038;28;114458;-75
2022/05/14 05:36:47;;;;;;;7.82;3.95;;;;;;;14.43;50.09;102035.78;4892311;28;115413;-76
2022/05/14 05:39:14;;;;;;;8.32;3.85;;;;;;;14.47;50.24;102048.06;4892597;28;123925;-75
2022/05/14 05:41:41;;;;;;;9.60;4.45;;;;;;;14.52;49.98;102048.75;4890261;28;123405;-76
2022/05/14 05:44:08;;;;;;;12.75;4.65;;;;;;;14.56;50.39;102052.13;4907437;28;114031;-76
2022/05/14 05:46:35;;;;;;;11.07;4.47;;;;;;;14.62;50.29;102051.03;4890952;28;113511;-77
2022/05/14 05:49:04;;;;;;;8.25;4.47;;;;;;;14.69;50.36;102047.16;4890830;28;123843;-76
2022/05/14 05:51:32;;;;;;;8.55;4.50;;;;;;;14.75;50.22;102046.91;4906350;28;124083;-76
2022/05/14 05:56:55;;;;;;;;;;;;;;;14.85;49.84;102058.91;4889947;28;114135;-75
2022/05/14 05:59:24;;;;;;;8.18;4.60;;;;;;;14.94;49.85;102058.50;4891482;28;124058;-75
2022/05/14 06:01:52;;;;;;;13.63;5.20;;;;;;;15.03;50.16;102056.34;4921879;28;124291;-75
2022/05/14 06:04:20;;;;;;;12.43;5.25;;;;;;;15.09;50.06;102050.78;4911525;28;114035;-76
2022/05/14 06:06:48;;;;;;;13.02;4.88;;;;;;;15.17;50.21;102053.97;4875660;28;115157;-76
2022/05/14 06:09:24;;;;;;;15.75;5.45;;;;;;;15.24;50.52;102060.75;4909931;28;124517;-76
2022/05/14 06:11:51;;;;;;;10.05;4.75;;;;;;;15.33;50.42;102065.69;4888350;28;124331;-77
2022/05/14 06:14:18;;;;;;;10.88;5.28;;;;;;;15.44;50.35;102072.31;4892167;28;113951;-76
2022/05/14 06:16:45;;;;;;;10.07;4.63;;;;;;;15.53;50.54;102077.25;4891643;28;113212;-76
2022/05/14 06:19:13;;;;;;;8.73;4.88;;;;;;;15.63;50.43;102062.50;4893623;28;124564;-79
2022/05/14 06:21:40;;;;;;;13.02;5.28;;;;;;;15.74;50.37;102065.56;4907830;28;123750;-76
2022/05/14 06:24:08;;;;;;;13.50;5.50;;;;;;;15.85;50.42;102066.88;4905090;28;115626;-76
2022/05/14 06:26:37;;;;;;;10.48;5.47;;;;;;;15.98;50.50;102068.03;4911486;28;114788;-76
2022/05/14 06:29:05;;;;;;;13.27;5.63;;;;;;;16.10;50.66;102067.41;4911518;28;124704;-76
2022/05/14 06:31:33;;;;;;;12.63;5.85;;;;;;;16.25;50.44;102062.28;4892467;28;123417;-76
2022/05/14 06:34:00;;;;;;;12.85;5.50;;;;;;;16.39;50.50;102065.13;4911127;28;113860;-76
2022/05/14 06:36:29;;;;;;;15.23;5.50;;;;;;;16.55;50.42;102079.44;4911091;28;113995;-77
2022/05/14 06:38:56;;;;;;;13.57;5.80;;;;;;;16.70;50.27;102074.28;4908664;28;123779;-77
2022/05/14 06:41:23;;;;;;;14.68;6.10;;;;;;;16.84;50.42;102074.47;4910197;28;124207;-76
2022/05/14 06:43:51;;;;;;;11.95;5.53;;;;;;;17.01;50.32;102080.72;4893430;28;113943;-76
2022/05/14 06:46:18;;;;;;;13.13;6.18;;;;;;;17.16;50.17;102074.59;4909556;28;113197;-76
2022/05/14 06:48:45;;;;;;;12.35;5.50;;;;;;;17.34;50.17;102071.88;4910040;28;123989;-76
2022/05/14 06:51:24;;;;;;;12.80;6.15;;;;;;;17.51;50.12;102079.84;4893231;28;122828;-76
2022/05/14 06:53:54;;;;;;;11.73;5.90;;;;;;;17.66;49.75;102083.50;4889370;28;114086;-76
2022/05/14 06:56:23;;;;;;;15.00;5.47;;;;;;;17.80;49.76;102082.72;4906253;28;114184;-77
2022/05/14 06:58:50;;;;;;;12.57;5.80;;;;;;;17.94;49.54;102082.88;4905904;28;124481;-76
2022/05/14 07:01:19;;;;;;;11.15;5.32;;;;;;;18.11;49.54;102078.38;4876428;28;124131;-76
2022/05/14 07:06:43;;;;;;;14.45;5.95;;;;;;;18.42;49.43;102072.97;4900936;28;113786;-76
2022/05/14 07:09:13;;;;;;;13.27;5.65;;;;;;;18.61;49.39;102072.75;4918518;28;122091;-76
2022/05/14 07:11:43;;;;;;;14.00;6.43;;;;;;;18.81;49.09;102079.63;4906390;28;124686;-76
2022/05/14 07:14:12;;;;;;;13.85;6.07;;;;;;;18.99;48.93;102071.44;4906922;28;114785;-75
2022/05/14 07:16:39;;;;;;;13.43;6.25;;;;;;;19.14;48.95;102069.63;4904367;28;114608;-75
2022/05/14 07:19:09;;;;;;;12.98;5.90;;;;;;;19.31;48.73;102065.88;4891578;28;124291;-74
2022/05/14 07:21:40;;;;;;;13.30;6.35;;;;;;;19.46;48.53;102070.31;4901975;28;123843;-74
2022/05/14 07:24:10;;;;;;;12.30;6.20;;;;;;;19.58;48.45;102072.19;4903974;28;114336;-74
2022/05/14 07:26:39;;;;;;;15.65;5.90;;;;;;;19.74;48.29;102071.25;4908171;28;112828;-75
2022/05/14 07:29:08;;;;;;;15.95;6.22;;;;;;;19.90;48.24;102069.31;4903545;28;122921;-75
2022/05/14 07:31:36;;;;;;;13.95;6.20;;;;;;;20.03;47.95;102072.91;4921326;28;126421;-74
2022/05/14 07:34:03;;;;;;;14.45;6.75;;;;;;;20.18;47.82;102067.50;4907707;28;114365;-74
2022/05/14 07:36:36;;;;;;;9.85;5.97;;;;;;;20.35;47.96;102069.91;4909206;28;113617;-75
2022/05/14 07:39:04;;;;;;;14.95;6.57;;;;;;;20.54;47.63;102068.69;4908111;28;123449;-76
2022/05/14 07:41:35;;;;;;;9.93;5.88;;;;;;;20.70;47.09;102073.91;4907550;28;123413;-75
2022/05/14 07:44:05;;;;;;;10.85;5.75;;;;;;;20.82;47.49;102077.63;4908819;28;113643;-75
2022/05/14 07:46:36;;;;;;;15.90;6.05;;;;;;;20.95;47.28;102083.88;4898508;28;114865;-75
2022/05/14 07:49:10;;;;;;;11.57;5.45;;;;;;;21.08;46.92;102084.75;4902598;28;123906;-74
2022/05/14 07:51:38;;;;;;;17.30;6.57;;;;;;;21.20;46.67;102083.88;4915571;28;124861;-74
2022/05/14 07:54:06;;;;;;;15.10;6.47;;;;;;;21.34;46.37;102080.22;4909952;28;113168;-74
2022/05/14 07:56:34;;;;;;;12.45;6.03;;;;;;;21.43;46.31;102078.69;4914024;28;114258;-74
2022/05/14 07:59:01;;;;;;;14.57;6.00;;;;;;;21.54;46.06;102081.50;4912790;28;124829;-74
2022/05/14 08:01:28;;;;;;;15.00;5.90;;;;;;;21.66;46.02;102085.16;4913423;28;124297;-74
2022/05/14 08:03:55;;;;;;;12.48;5.82;;;;;;;21.77;45.74;102087.06;4913136;28;114915;-75
2022/05/14 08:06:22;;;;;;;14.57;6.43;;;;;;;21.85;45.39;102082.00;4928198;28;115267;-74
2022/05/14 08:08:51;;;;;;;11.38;5.65;;;;;;;21.94;45.45;102088.53;4912547;28;124839;-73
2022/05/14 08:11:18;;;;;;;13.63;5.70;;;;;;;22.02;45.35;102085.25;4911958;28;123661;-74
2022/05/14 08:13:45;;;;;;;13.90;5.68;;;;;;;22.09;45.34;102079.28;4927467;28;113484;-74
2022/05/14 08:16:13;;;;;;;18.15;5.45;;;;;;;22.16;44.84;102082.41;4913505;28;113713;-74
2022/05/14 08:18:40;;;;;;;15.98;5.97;;;;;;;22.21;45.07;102091.03;4927187;28;125150;-75
2022/05/14 08:26:40;;;;;;;;;;;;;;;22.31;44.64;102089.38;4910433;28;114087;-74
2022/05/14 08:29:07;;;;;;;14.80;5.90;;;;;;;22.39;44.86;102087.97;4926817;28;124127;-75
2022/05/14 08:31:34;;;;;;;15.90;6.25;;;;;;;22.48;44.73;102084.56;4911850;28;123704;-75
2022/05/14 08:34:02;;;;;;;12.60;5.63;;;;;;;22.58;44.54;102082.88;4926937;28;113438;-74
2022/05/14 08:36:29;;;;;;;18.65;6.30;;;;;;;22.69;44.50;102074.81;4912877;28;114406;-74
2022/05/14 08:38:56;;;;;;;12.40;5.60;;;;;;;22.81;44.51;102082.94;4911102;28;124632;-74
2022/05/14 08:41:23;;;;;;;11.38;5.20;;;;;;;22.94;44.05;102083.72;4911973;28;122833;-74
2022/05/14 08:43:55;;;;;;;11.32;5.75;;;;;;;23.02;43.69;102086.69;4911533;28;114112;-75
2022/05/14 08:46:25;;;;;;;9.38;5.38;;;;;;;23.11;43.70;102083.31;4912974;28;113959;-75
2022/05/14 08:48:56;;;;;;;10.38;5.95;;;;;;;23.19;43.39;102087.22;4911847;28;124034;-74
2022/05/14 08:51:30;;;;;;;12.63;5.45;;;;;;;23.26;43.29;102088.47;4908882;28;123373;-74
2022/05/14 08:53:57;;;;;;;12.55;5.78;;;;;;;23.26;42.95;102086.63;4894078;28;113272;-74
2022/05/14 08:56:38;;;;;;;12.68;5.80;;;;;;;23.30;42.93;102084.53;4929898;28;115048;-75
2022/05/14 08:59:38;;;;;;;15.38;6.03;;;;;;;23.35;42.96;102074.22;4929730;28;124817;-75
2022/05/14 09:02:23;;;;;;;12.80;6.00;;;;;;;23.41;43.34;102084.53;4898057;28;123909;-74
2022/05/14 09:05:00;;;;;;;18.17;6.00;;;;;;;23.52;43.22;102073.72;4909507;28;114336;-75
2022/05/14 09:07:27;;;;;;;15.48;5.50;;;;;;;23.62;43.08;102075.69;4910184;28;114414;-75
2022/05/14 09:09:57;;;;;;;12.40;6.43;;;;;;;23.69;42.73;102074.19;4920211;28;124758;-75
2022/05/14 09:12:31;;;;;;;11.50;5.90;;;;;;;23.74;42.56;102076.56;4912271;28;124359;-75
2022/05/14 09:15:03;;;;;;;12.17;5.83;;;;;;;23.79;42.54;102080.63;4927237;28;114485;-75
2022/05/14 09:17:30;;;;;;;12.27;5.82;;;;;;;23.88;42.49;102079.88;4926496;28;113257;-75
2022/05/14 09:19:59;;;;;;;14.88;5.82;;;;;;;23.97;42.12;102082.81;4910975;28;124117;-75
2022/05/14 09:22:35;;;;;;;11.90;5.78;;;;;;;24.00;41.71;102077.16;4897104;28;123902;-75
2022/05/14 09:25:27;;;;;;;15.02;6.05;;;;;;;24.06;42.53;102079.34;4909375;28;114336;-75
2022/05/14 09:27:56;;;;;;;12.88;5.68;;;;;;;24.19;42.42;102077.31;4906607;28;113831;-75
2022/05/14 09:30:35;;;;;;;13.45;5.30;;;;;;;24.32;42.09;102077.16;4910347;28;123840;-75
2022/05/14 09:33:04;;;;;;;14.18;5.10;;;;;;;24.43;41.71;102078.94;4926354;28;124410;-75
2022/05/14 09:35:33;;;;;;;11.40;5.22;;;;;;;24.50;41.44;102069.31;4926838;28;113463;-75
2022/05/14 09:38:17;;;;;;;18.95;5.57;;;;;;;24.59;41.38;102068.56;4912627;28;113928;-74
2022/05/14 09:40:52;;;;;;;9.70;5.55;;;;;;;24.68;41.02;102073.19;4918970;28;123125;-74
2022/05/14 09:43:19;;;;;;;12.70;5.35;;;;;;;24.75;40.77;102078.09;4910946;28;124113;-75
2022/05/14 09:46:00;;;;;;;13.25;5.40;;;;;;;24.78;40.64;102083.25;4910042;28;113910;-76
2022/05/14 09:48:32;;;;;;;10.38;4.82;;;;;;;24.84;40.73;102071.88;4910312;28;115024;-75
2022/05/14 09:51:05;;;;;;;12.38;5.35;;;;;;;24.89;40.54;102069.63;4910585;28;123705;-75
2022/05/14 09:53:43;;;;;;;12.25;5.00;;;;;;;24.93;40.43;102065.66;4923706;28;124361;-75
2022/05/14 09:56:10;;;;;;;11.05;5.63;;;;;;;24.98;40.55;102068.84;4910468;28;114232;-74
2022/05/14 09:58:56;;;;;;;13.32;5.10;;;;;;;25.09;40.51;102073.34;4926334;28;113815;-75
2022/05/14 10:01:41;;;;;;;11.40;4.72;;;;;;;25.25;40.66;102070.16;4907975;28;123889;-74
2022/05/14 10:04:23;;;;;;;12.90;5.13;;;;;;;25.41;40.33;102067.81;4907930;28;123928;-75
2022/05/14 10:07:01;;;;;;;11.93;4.82;;;;;;;25.53;39.83;102079.41;4926435;28;113251;-76
2022/05/14 10:09:58;;;;;;;7.88;4.00;;;;;;;25.60;39.88;102079.72;4911179;28;114009;-75
2022/05/14 10:12:36;;;;;;;10.40;4.45;;;;;;;25.62;39.33;102069.59;4907933;28;123641;-75
2022/05/14 10:15:28;;;;;;;7.30;4.07;;;;;;;25.59;39.38;102067.16;4909399;28;124538;-75
2022/05/14 10:18:22;;;;;;;10.52;5.07;;;;;;;25.59;39.07;102078.00;4902601;28;114193;-75
2022/05/14 10:21:02;;;;;;;10.83;4.93;;;;;;;25.57;39.20;102069.16;4908612;28;113847;-75
2022/05/14 10:27:12;;;;;;;12.23;4.20;;;;;;;25.59;39.22;102067.16;4910966;28;123851;-75
2022/05/14 10:29:58;;;;;;;12.85;4.65;;;;;;;25.63;38.87;102074.00;4911598;28;114333;-75
2022/05/14 10:32:30;;;;;;;11.18;4.25;;;;;;;25.63;38.46;102065.88;4915670;28;113922;-74
2022/05/14 10:35:05;;;;;;;10.82;4.70;;;;;;;25.65;38.43;102066.59;4899676;28;123428;-75
2022/05/14 10:37:39;;;;;;;10.35;4.63;;;;;;;25.73;38.78;102066.78;4926077;28;124098;-75
2022/05/14 10:40:07;;;;;;;;;;;;;;;25.81;39.22;102066.09;4907755;28;115971;-76
2022/05/14 10:42:46;;;;;;;11.10;3.53;;;;;;;25.98;38.87;102067.28;4914090;28;114623;-75
2022/05/14 10:45:37;;;;;;;12.10;4.10;;;;;;;26.08;38.07;102053.72;4895104;28;123500;-74
2022/05/14 10:48:33;;;;;;;6.40;3.40;;;;;;;26.12;37.32;102057.88;4897887;28;123980;-75
2022/05/14 10:51:06;;;;;;;9.68;4.05;;;;;;;26.14;37.38;102062.16;4893665;28;114342;-75
2022/05/14 10:53:37;;;;;;;8.45;4.05;;;;;;;26.22;37.78;102065.03;4908260;28;113736;-74
2022/05/14 10:56:10;;;;;;;12.95;3.83;;;;;;;26.33;37.50;102060.44;4901552;28;124469;-75
2022/05/14 10:58:52;;;;;;;8.10;3.85;;;;;;;26.41;37.50;102057.88;4897719;28;123460;-75
2022/05/14 11:01:29;;;;;;;9.32;3.67;;;;;;;26.53;37.28;102062.16;4913533;28;113973;-74
2022/05/14 11:04:14;;;;;;;8.95;3.78;;;;;;;26.62;36.75;102060.47;4909082;28;113889;-74
2022/05/14 11:07:01;;;;;;;9.95;3.40;;;;;;;26.71;36.98;102058.72;4921948;28;124053;-74
2022/05/14 11:09:40;;;;;;;8.98;3.60;;;;;;;26.81;36.39;102059.59;4899165;28;124026;-75
2022/05/14 11:12:28;;;;;;;9.35;3.55;;;;;;;26.91;36.02;102062.28;4908178;28;114515;-74
2022/05/14 11:14:58;;;;;;;7.82;3.55;;;;;;;26.99;36.25;102057.84;4909692;28;114462;-75
2022/05/14 11:17:26;;;;;;;10.88;4.20;;;;;;;27.12;36.09;102072.94;4908072;28;123656;-75
2022/05/14 11:20:02;;;;;;;6.93;3.90;;;;;;;27.25;35.68;102051.75;4913515;28;123212;-75
2022/05/14 11:22:50;;;;;;;7.93;3.28;;;;;;;27.35;35.61;102058.03;4909787;28;113139;-73
2022/05/14 11:25:20;;;;;;;7.93;3.58;;;;;;;27.47;35.40;102044.22;4895912;28;114460;-76
2022/05/14 11:28:09;;;;;;;10.43;3.33;;;;;;;27.56;35.21;102060.50;4912639;28;124276;-74
2022/05/14 11:30:49;;;;;;;7.40;3.70;;;;;;;27.66;34.73;102055.00;4898815;28;124130;-76
2022/05/14 11:33:22;;;;;;;14.70;3.92;;;;;;;27.64;34.33;102056.16;4922239;28;114995;-75
2022/05/14 11:35:51;;;;;;;7.47;4.03;;;;;;;27.51;34.53;102056.50;4905508;28;115407;-76
2022/05/14 11:38:24;;;;;;;10.00;4.05;;;;;;;27.34;34.49;102059.00;4927904;28;123005;-78
2022/05/14 11:41:28;;;;;;;10.73;4.93;;;;;;;27.22;34.66;102068.34;4911911;28;123635;-74
2022/05/14 11:43:56;;;;;;;9.45;4.32;;;;;;;27.18;34.60;102066.91;4907747;28;114979;-74
2022/05/14 11:46:39;;;;;;;7.10;3.40;;;;;;;27.12;34.35;102062.06;4913426;28;113897;-76
2022/05/14 11:49:12;;;;;;;8.15;3.40;;;;;;;27.11;34.32;102065.81;4911834;28;124908;-75
2022/05/14 11:52:20;;;;;;;7.45;3.25;;;;;;;27.11;34.41;102071.25;4911101;28;123036;-75
2022/05/14 11:54:55;;;;;;;7.55;3.42;;;;;;;27.10;33.74;102066.81;4893854;28;113265;-75
2022/05/14 11:57:37;;;;;;;8.32;3.67;;;;;;;27.09;34.12;102052.34;4906136;28;114102;-75